Terminal Aerodrome Forecast
Issued by NWS

Home | Current Version | Previous Version | Text Only | Print | Product List | Glossary On
Versions: 1 2 3 4 5 6 7 8 9 10 11 12
000
FTUS42 KTAE 292320
TAFVLD
TAF
KVLD 292320Z 3000/3024 00000KT P6SM FEW080
     FM301400 33003KT P6SM FEW040
     FM302000 34005KT P6SM VCSH SCT060=

USA.gov is the U.S. government's official web portal to all federal, state and local government web resources and services.